Time;durP1;ratioP1;P1;durP2;ratioP2;P2;SDS_P1;SDS_P2;PMS_P1;PMS_P2;Temp;Humidity;BMP_temperature;BMP_pressure;BME280_temperature;BME280_humidity;BME280_pressure;Samples;Min_cycle;Max_cycle;Signal;HPM_P1;HPM_P2
2021/09/14 00:02:20;;;;;;;7.45;3.65;;;;;;;23.02;39.09;101181.72;4987060;28;20089;-73
2021/09/14 00:04:46;;;;;;;5.38;3.90;;;;;;;23.01;39.51;101180.84;4970929;28;20062;-73
2021/09/14 00:07:13;;;;;;;4.78;3.50;;;;;;;23.00;39.44;101181.88;4970755;28;20076;-73
2021/09/14 00:09:40;;;;;;;6.53;4.18;;;;;;;22.98;39.72;101188.63;4969783;28;20094;-73
2021/09/14 00:12:07;;;;;;;5.07;4.15;;;;;;;22.97;39.54;101184.16;4987941;28;20081;-73
2021/09/14 00:14:33;;;;;;;7.18;4.07;;;;;;;22.94;39.79;101177.03;4987277;28;20146;-72
2021/09/14 00:17:00;;;;;;;5.32;3.70;;;;;;;22.93;39.12;101183.63;4988031;28;20085;-73
2021/09/14 00:19:26;;;;;;;5.75;4.10;;;;;;;22.92;39.23;101181.03;4986899;28;20052;-73
2021/09/14 00:21:53;;;;;;;5.70;4.43;;;;;;;22.89;39.19;101173.09;4987489;28;20090;-73
2021/09/14 00:24:19;;;;;;;6.28;4.10;;;;;;;22.88;39.32;101176.88;4986690;28;20500;-73
2021/09/14 00:26:46;;;;;;;5.20;3.97;;;;;;;22.86;39.47;101179.81;4987816;28;20685;-73
2021/09/14 00:29:12;;;;;;;6.35;4.10;;;;;;;22.83;39.61;101180.16;4986893;28;20084;-73
2021/09/14 00:31:39;;;;;;;4.65;3.50;;;;;;;22.82;39.67;101180.31;4987875;28;20129;-73
2021/09/14 00:34:05;;;;;;;5.55;3.85;;;;;;;22.78;39.35;101177.06;4986513;28;20273;-73
2021/09/14 00:36:32;;;;;;;6.05;3.85;;;;;;;22.78;39.71;101177.06;4987310;28;20076;-73
2021/09/14 00:38:58;;;;;;;4.97;3.80;;;;;;;22.74;40.02;101179.31;4986243;28;20418;-73
2021/09/14 00:41:25;;;;;;;5.43;3.70;;;;;;;22.73;39.84;101177.53;4987424;28;20082;-73
2021/09/14 00:43:56;;;;;;;4.90;3.80;;;;;;;22.73;39.40;101172.00;4969416;28;20138;-73
2021/09/14 00:46:23;;;;;;;4.55;3.55;;;;;;;22.68;39.35;101168.03;4969509;28;20046;-72
2021/09/14 00:48:49;;;;;;;4.30;3.72;;;;;;;22.67;39.47;101166.28;4986314;28;20416;-72
2021/09/14 00:51:16;;;;;;;5.28;3.55;;;;;;;22.64;39.75;101167.53;4969803;28;20198;-72
2021/09/14 00:53:43;;;;;;;5.63;3.92;;;;;;;22.62;39.58;101158.53;4986486;28;20140;-72
2021/09/14 00:56:09;;;;;;;5.03;3.80;;;;;;;22.61;40.13;101153.16;4987071;28;20141;-72
2021/09/14 00:58:36;;;;;;;5.68;3.83;;;;;;;22.60;39.77;101152.28;4985876;28;20535;-72
2021/09/14 01:01:02;;;;;;;5.25;3.83;;;;;;;22.58;39.81;101165.44;5000483;28;20045;-73
2021/09/14 01:03:29;;;;;;;4.35;3.60;;;;;;;22.57;39.92;101154.53;5004715;28;20416;-74
2021/09/14 01:05:56;;;;;;;4.80;4.03;;;;;;;22.54;39.68;101161.28;4986858;28;20061;-72
2021/09/14 01:08:24;;;;;;;5.88;3.92;;;;;;;22.54;39.83;101160.44;4986410;28;20050;-73
2021/09/14 01:10:52;;;;;;;5.13;3.72;;;;;;;22.51;39.82;101150.56;4967162;28;20043;-73
2021/09/14 01:13:18;;;;;;;5.28;3.90;;;;;;;22.50;39.89;101153.50;4967096;28;20051;-73
2021/09/14 01:15:44;;;;;;;4.20;3.42;;;;;;;22.49;40.25;101155.38;4985304;28;20050;-74
2021/09/14 01:18:11;;;;;;;5.90;4.30;;;;;;;22.47;40.00;101149.19;4986077;28;20061;-73
2021/09/14 01:20:37;;;;;;;5.28;4.28;;;;;;;22.45;40.34;101154.03;4969158;28;20524;-73
2021/09/14 01:23:04;;;;;;;6.38;3.90;;;;;;;22.44;40.37;101141.22;4968868;28;20133;-73
2021/09/14 01:25:31;;;;;;;5.28;4.13;;;;;;;22.42;40.46;101147.94;4987143;28;20050;-73
2021/09/14 01:28:05;;;;;;;7.03;4.45;;;;;;;22.43;40.87;101147.78;4986085;28;20058;-73
2021/09/14 01:30:33;;;;;;;5.00;3.97;;;;;;;22.36;40.00;101150.38;4986483;28;20129;-73
2021/09/14 01:33:00;;;;;;;6.68;3.63;;;;;;;22.32;40.57;101148.97;4985440;28;20042;-73
2021/09/14 01:35:30;;;;;;;4.93;3.85;;;;;;;22.32;40.52;101156.41;4986576;28;20149;-73
2021/09/14 01:37:58;;;;;;;5.30;4.10;;;;;;;22.28;40.57;101161.44;4985491;28;20129;-74
2021/09/14 01:40:26;;;;;;;6.05;4.07;;;;;;;22.27;40.41;101158.84;4986750;28;20400;-73
2021/09/14 01:42:53;;;;;;;6.00;4.07;;;;;;;22.26;40.03;101168.16;4983437;28;20587;-74
2021/09/14 01:45:19;;;;;;;5.13;3.63;;;;;;;22.24;40.25;101173.88;4985953;28;20099;-74
2021/09/14 01:47:46;;;;;;;6.15;4.22;;;;;;;22.23;40.37;101174.06;4984698;28;20046;-74
2021/09/14 01:50:15;;;;;;;4.90;3.75;;;;;;;22.21;40.30;101174.22;4969144;28;20054;-73
2021/09/14 01:52:42;;;;;;;5.20;4.28;;;;;;;22.20;40.70;101171.63;4985431;28;20121;-74
2021/09/14 01:55:11;;;;;;;5.75;4.28;;;;;;;22.20;40.31;101164.19;4986059;28;20508;-74
2021/09/14 01:57:39;;;;;;;4.75;3.65;;;;;;;22.17;40.04;101170.06;4985203;28;20519;-74
2021/09/14 02:00:12;;;;;;;6.40;4.07;;;;;;;22.17;40.90;101160.88;4980969;28;20492;-73
2021/09/14 02:05:39;;;;;;;5.78;4.15;;;;;;;22.13;40.43;101170.56;4998273;28;20050;-73
2021/09/14 02:08:27;;;;;;;5.65;4.25;;;;;;;22.10;40.25;101159.84;4985275;28;20480;-73
2021/09/14 02:33:46;;;;;;;6.03;3.83;;;;;;;21.91;41.28;101156.31;4985622;28;20139;-73
2021/09/14 02:41:40;;;;;;;4.80;3.65;;;;;;;21.83;40.91;101159.03;4985828;28;20117;-74
2021/09/14 03:00:20;;;;;;;5.78;4.60;;;;;;;21.66;41.18;101137.06;4984982;28;20054;-74
2021/09/14 03:02:49;;;;;;;5.65;4.22;;;;;;;21.63;41.65;101141.03;4985111;28;20125;-74
2021/09/14 03:05:15;;;;;;;6.00;4.68;;;;;;;21.60;41.30;101133.94;4986170;28;20137;-73
2021/09/14 03:07:42;;;;;;;6.50;4.22;;;;;;;21.58;41.42;101122.16;4966821;28;20073;-74
2021/09/14 03:10:08;;;;;;;5.47;4.03;;;;;;;21.56;41.55;101129.78;4986426;28;20136;-74
2021/09/14 03:12:35;;;;;;;4.82;4.32;;;;;;;21.55;41.67;101132.72;4971035;28;20080;-74
2021/09/14 03:15:02;;;;;;;5.32;4.22;;;;;;;21.53;41.09;101135.63;4971993;28;20353;-73
2021/09/14 03:17:29;;;;;;;5.50;4.40;;;;;;;21.51;41.64;101137.69;4970707;28;20415;-74
2021/09/14 03:19:55;;;;;;;5.22;3.80;;;;;;;21.50;41.23;101138.72;4988960;28;20137;-74
2021/09/14 03:22:22;;;;;;;5.28;4.20;;;;;;;21.50;41.62;101140.63;4989151;28;20077;-73
2021/09/14 03:24:48;;;;;;;5.70;4.50;;;;;;;21.48;41.72;101132.53;4946822;28;20073;-74
2021/09/14 03:27:15;;;;;;;7.03;4.45;;;;;;;21.46;42.10;101130.94;4988665;28;20074;-74
2021/09/14 03:29:41;;;;;;;5.53;4.28;;;;;;;21.43;41.96;101115.56;4987506;28;21153;-74
2021/09/14 03:32:08;;;;;;;6.63;4.82;;;;;;;21.40;41.63;101115.91;4971581;28;20052;-74
2021/09/14 03:34:34;;;;;;;5.47;4.70;;;;;;;21.39;41.64;101122.47;4987998;28;20538;-73
2021/09/14 03:37:00;;;;;;;4.97;4.07;;;;;;;21.36;41.82;101125.53;4987996;28;20058;-74
2021/09/14 03:39:27;;;;;;;5.32;4.13;;;;;;;21.35;41.88;101112.75;4987942;28;20626;-74
2021/09/14 03:41:53;;;;;;;5.80;4.10;;;;;;;21.34;42.02;101111.03;4988737;28;20435;-74
2021/09/14 03:44:20;;;;;;;5.20;4.00;;;;;;;21.33;42.06;101101.00;4987425;28;20049;-74
2021/09/14 03:46:46;;;;;;;6.25;4.53;;;;;;;21.33;41.85;101108.44;4970969;28;20050;-74
2021/09/14 03:49:13;;;;;;;5.55;4.55;;;;;;;21.30;41.88;101108.78;4987562;28;20136;-74
2021/09/14 03:51:39;;;;;;;6.22;4.60;;;;;;;21.29;41.64;101104.28;4971191;28;20572;-74
2021/09/14 03:54:06;;;;;;;6.38;5.00;;;;;;;21.27;42.13;101107.19;4987493;28;20046;-73
2021/09/14 03:56:33;;;;;;;5.95;4.38;;;;;;;21.25;42.31;101101.84;4970285;28;20137;-74
2021/09/14 03:58:59;;;;;;;5.88;4.53;;;;;;;21.25;41.85;101092.69;4985880;28;20058;-74
2021/09/14 04:01:26;;;;;;;6.40;4.90;;;;;;;21.23;42.01;101092.00;4988118;28;20138;-74
2021/09/14 04:04:05;;;;;;;6.43;4.70;;;;;;;21.20;42.28;101086.81;4987381;28;20458;-74
2021/09/14 04:09:07;;;;;;;5.95;4.20;;;;;;;21.15;42.21;101078.13;4987240;28;20058;-74
2021/09/14 04:11:34;;;;;;;7.78;4.85;;;;;;;21.14;42.94;101073.63;4987658;28;20050;-74
2021/09/14 04:14:00;;;;;;;6.15;4.13;;;;;;;21.13;42.51;101069.13;4969353;28;20397;-74
2021/09/14 04:16:27;;;;;;;6.63;5.07;;;;;;;21.12;42.66;101064.66;4987394;28;20050;-74
2021/09/14 04:18:53;;;;;;;6.30;4.63;;;;;;;21.10;42.31;101058.41;4987343;28;20374;-74
2021/09/14 04:21:20;;;;;;;7.22;4.65;;;;;;;21.08;42.75;101057.75;4986974;28;20169;-74
2021/09/14 04:23:46;;;;;;;5.80;4.45;;;;;;;21.07;42.60;101058.75;4968845;28;20050;-74
2021/09/14 04:26:13;;;;;;;6.25;4.40;;;;;;;21.06;42.16;101052.38;4987598;28;20053;-74
2021/09/14 04:28:39;;;;;;;5.85;4.47;;;;;;;21.06;42.62;101062.56;4977907;28;20128;-74
2021/09/14 04:31:06;;;;;;;6.30;4.53;;;;;;;21.05;42.27;101058.94;4984467;28;20045;-74
2021/09/14 04:33:33;;;;;;;6.50;4.50;;;;;;;21.05;42.30;101067.22;4991665;28;20106;-73
2021/09/14 04:35:59;;;;;;;5.18;4.22;;;;;;;21.04;42.42;101062.72;4969965;28;20050;-74
2021/09/14 04:38:27;;;;;;;5.85;4.50;;;;;;;21.02;42.33;101056.47;4969300;28;20385;-75
2021/09/14 04:40:53;;;;;;;5.50;4.28;;;;;;;21.03;42.30;101058.22;4987914;28;20141;-75
2021/09/14 04:43:20;;;;;;;5.93;4.35;;;;;;;21.03;42.44;101062.88;4969224;28;20492;-75
2021/09/14 04:45:46;;;;;;;5.40;4.28;;;;;;;21.02;42.44;101059.25;4987160;28;20729;-75
2021/09/14 04:48:13;;;;;;;5.70;4.43;;;;;;;21.01;41.97;101060.28;4986376;28;20053;-75
2021/09/14 04:50:40;;;;;;;5.82;4.45;;;;;;;21.02;42.53;101066.66;4987445;28;20423;-75
2021/09/14 04:53:06;;;;;;;5.45;4.32;;;;;;;21.01;42.40;101065.78;4985923;28;20129;-75
2021/09/14 04:55:33;;;;;;;5.68;4.28;;;;;;;21.00;42.58;101054.94;4970239;28;20137;-75
2021/09/14 04:57:59;;;;;;;6.05;4.43;;;;;;;21.00;41.97;101053.00;4973544;28;20081;-75
2021/09/14 05:00:26;;;;;;;5.40;4.57;;;;;;;21.00;42.63;101057.69;4980200;28;20050;-75
2021/09/14 05:02:53;;;;;;;5.32;4.20;;;;;;;20.99;42.52;101053.22;4985949;28;20046;-75
2021/09/14 05:05:20;;;;;;;6.07;4.50;;;;;;;20.99;42.52;101055.97;4986910;28;20431;-75
2021/09/14 05:07:47;;;;;;;6.72;4.53;;;;;;;20.97;42.42;101047.84;4985520;28;20050;-75
2021/09/14 05:10:13;;;;;;;5.45;4.35;;;;;;;20.96;42.60;101056.28;4987040;28;20051;-75
2021/09/14 05:12:40;;;;;;;6.88;4.53;;;;;;;20.96;42.35;101051.63;4986000;28;20125;-75
2021/09/14 05:15:07;;;;;;;6.13;4.40;;;;;;;20.96;42.30;101064.56;4969644;28;20124;-75
2021/09/14 05:17:33;;;;;;;6.32;4.50;;;;;;;20.96;41.97;101070.09;4968384;28;20092;-75
2021/09/14 05:20:00;;;;;;;5.40;4.03;;;;;;;20.96;42.37;101070.94;4986645;28;20210;-75
2021/09/14 05:22:34;;;;;;;6.45;4.35;;;;;;;20.95;42.10;101077.50;4968496;28;20134;-75
2021/09/14 05:25:03;;;;;;;6.80;4.88;;;;;;;20.96;42.50;101078.38;4969500;28;20133;-75
2021/09/14 05:27:29;;;;;;;6.13;4.50;;;;;;;20.95;42.37;101065.59;4968105;28;20085;-75
2021/09/14 05:29:56;;;;;;;6.05;4.65;;;;;;;20.93;42.81;101063.00;4994920;28;20510;-74
2021/09/14 05:32:23;;;;;;;7.15;5.10;;;;;;;20.91;42.97;101061.44;4986202;28;20105;-75
2021/09/14 05:34:51;;;;;;;7.03;4.93;;;;;;;20.91;42.95;101075.25;4960123;28;20050;-75
2021/09/14 05:37:18;;;;;;;6.25;4.90;;;;;;;20.88;42.44;101073.66;4986009;28;20054;-75
2021/09/14 05:39:45;;;;;;;5.85;4.50;;;;;;;20.88;42.34;101074.53;4985759;28;20548;-75
2021/09/14 05:42:12;;;;;;;6.07;4.55;;;;;;;20.86;43.04;101071.06;4969268;28;20562;-75
2021/09/14 05:44:38;;;;;;;6.95;5.13;;;;;;;20.88;43.14;101065.38;4985743;28;20173;-75
2021/09/14 05:47:05;;;;;;;7.60;4.93;;;;;;;20.88;43.33;101062.63;4968771;28;20080;-76
2021/09/14 05:49:32;;;;;;;7.18;5.45;;;;;;;20.87;43.32;101066.41;4985242;28;20051;-75
2021/09/14 05:51:59;;;;;;;6.18;4.82;;;;;;;20.86;43.25;101073.81;4969200;28;20101;-75
2021/09/14 05:54:25;;;;;;;7.40;4.97;;;;;;;20.87;43.01;101080.22;4968115;28;20080;-75
2021/09/14 05:56:52;;;;;;;7.60;4.82;;;;;;;20.88;43.24;101076.44;4968809;28;20109;-75
2021/09/14 05:59:19;;;;;;;6.47;5.00;;;;;;;20.89;43.24;101079.03;4984873;28;20125;-71
2021/09/14 06:01:45;;;;;;;7.15;4.60;;;;;;;20.92;43.27;101085.25;4985770;28;20061;-70
2021/09/14 06:04:12;;;;;;;6.40;5.20;;;;;;;20.94;43.94;101083.19;4985169;28;20536;-68
2021/09/14 06:06:38;;;;;;;8.05;5.43;;;;;;;20.96;43.93;101070.09;4985879;28;20104;-68
2021/09/14 06:09:05;;;;;;;6.93;5.38;;;;;;;20.98;44.03;101079.06;4985197;28;20080;-67
2021/09/14 06:11:31;;;;;;;7.28;5.85;;;;;;;20.99;43.93;101076.16;4986307;28;20081;-68
2021/09/14 06:13:58;;;;;;;7.45;5.82;;;;;;;21.02;44.22;101072.19;4985054;28;20124;-66
2021/09/14 06:16:24;;;;;;;8.05;6.03;;;;;;;21.04;44.03;101075.66;4986062;28;20141;-66
2021/09/14 06:18:51;;;;;;;8.35;5.70;;;;;;;21.05;44.08;101075.50;4984481;28;20145;-67
2021/09/14 06:21:17;;;;;;;8.45;6.38;;;;;;;21.07;44.40;101070.69;4986309;28;20461;-68
2021/09/14 06:23:44;;;;;;;8.07;6.20;;;;;;;21.10;44.34;101070.31;4985206;28;20057;-67
2021/09/14 06:26:10;;;;;;;8.25;5.70;;;;;;;21.12;44.48;101073.78;4985779;28;20141;-68
2021/09/14 06:28:37;;;;;;;7.95;5.97;;;;;;;21.15;44.71;101067.09;4984677;28;20078;-67
2021/09/14 06:31:04;;;;;;;8.85;6.07;;;;;;;21.19;44.75;101074.03;4985535;28;20058;-67
2021/09/14 06:33:30;;;;;;;9.90;6.60;;;;;;;21.21;44.16;101070.06;4985355;28;20406;-67
2021/09/14 06:35:56;;;;;;;7.53;5.55;;;;;;;21.24;44.43;101072.50;4985634;28;20523;-67
2021/09/14 06:38:23;;;;;;;8.23;5.35;;;;;;;21.27;44.45;101069.41;4967845;28;20057;-72
2021/09/14 06:40:50;;;;;;;7.65;5.60;;;;;;;21.30;44.76;101079.25;4986002;28;20078;-72
2021/09/14 06:43:17;;;;;;;8.13;5.60;;;;;;;21.34;44.75;101077.00;4983736;28;20133;-74
2021/09/14 06:45:43;;;;;;;7.85;5.38;;;;;;;21.36;44.70;101078.59;4970471;28;20058;-75
2021/09/14 06:48:14;;;;;;;7.30;5.45;;;;;;;21.40;44.75;101077.25;4988898;28;20133;-74
2021/09/14 06:50:40;;;;;;;6.65;5.35;;;;;;;21.44;45.06;101073.09;4972511;28;20069;-74
2021/09/14 06:53:07;;;;;;;7.32;5.90;;;;;;;21.50;45.08;101077.06;4989331;28;20186;-74
2021/09/14 06:55:33;;;;;;;6.65;5.20;;;;;;;21.55;45.24;101075.56;4972626;28;20064;-74
2021/09/14 06:58:00;;;;;;;9.73;5.53;;;;;;;21.60;44.89;101078.66;4989124;28;20504;-75
2021/09/14 07:00:27;;;;;;;6.35;5.15;;;;;;;21.67;45.03;101080.75;5022743;23;20056;-74
2021/09/14 07:02:53;;;;;;;6.70;4.97;;;;;;;21.72;45.22;101067.31;5026428;28;20053;-73
2021/09/14 07:05:20;;;;;;;7.05;5.07;;;;;;;21.79;45.25;101080.28;5009177;28;20053;-73
2021/09/14 07:07:47;;;;;;;7.55;5.50;;;;;;;21.86;45.73;101084.09;5008356;28;20065;-73
2021/09/14 07:10:13;;;;;;;6.90;5.22;;;;;;;21.95;45.27;101073.91;4992283;28;20144;-73
2021/09/14 07:12:40;;;;;;;6.75;5.65;;;;;;;22.03;45.29;101073.94;5008139;28;20092;-72
2021/09/14 07:15:08;;;;;;;6.97;5.10;;;;;;;22.14;45.40;101079.16;5009235;28;20487;-73
2021/09/14 07:17:37;;;;;;;7.32;5.45;;;;;;;22.21;45.04;101079.31;4990881;28;20436;-73
2021/09/14 07:20:06;;;;;;;7.18;5.57;;;;;;;22.30;45.10;101070.84;4991661;28;20081;-73
2021/09/14 07:22:34;;;;;;;7.70;5.80;;;;;;;22.38;44.87;101072.75;4990598;28;20046;-73
2021/09/14 07:25:00;;;;;;;6.43;5.05;;;;;;;22.45;44.80;101067.38;5009163;28;20500;-73
2021/09/14 07:27:27;;;;;;;7.22;5.13;;;;;;;22.52;45.02;101068.41;5008059;28;20104;-73
2021/09/14 07:29:54;;;;;;;8.43;6.00;;;;;;;22.58;45.05;101064.94;4995882;28;20049;-74
2021/09/14 07:32:20;;;;;;;7.00;5.30;;;;;;;22.63;44.58;101062.53;5028386;28;20399;-74
2021/09/14 07:34:47;;;;;;;6.30;5.18;;;;;;;22.68;44.41;101057.31;5027443;28;20507;-73
2021/09/14 07:37:13;;;;;;;6.90;5.22;;;;;;;22.75;44.62;101052.81;5028579;28;20136;-74
2021/09/14 07:39:40;;;;;;;6.97;4.93;;;;;;;22.79;44.32;101061.66;5027674;28;20128;-74
2021/09/14 07:42:06;;;;;;;7.47;5.32;;;;;;;22.84;44.54;101050.91;5010890;28;20563;-74
2021/09/14 07:44:33;;;;;;;8.55;5.82;;;;;;;22.88;43.80;101046.75;5027160;28;20142;-72
2021/09/14 07:46:59;;;;;;;8.15;5.72;;;;;;;22.91;44.10;101043.59;5028272;28;20045;-74
2021/09/14 07:49:26;;;;;;;8.93;6.05;;;;;;;22.94;43.97;101052.44;5027377;28;20144;-73
2021/09/14 07:51:52;;;;;;;6.65;5.07;;;;;;;22.97;44.20;101045.69;5010840;28;20137;-72
2021/09/14 07:54:19;;;;;;;7.53;5.63;;;;;;;23.00;43.84;101046.19;5027269;28;20444;-73
2021/09/14 07:56:46;;;;;;;8.57;5.15;;;;;;;23.03;43.90;101050.50;4996801;28;20089;-73
2021/09/14 07:59:12;;;;;;;7.15;5.57;;;;;;;23.06;43.15;101052.94;5007448;28;20388;-73
2021/09/14 08:01:39;;;;;;;6.75;4.82;;;;;;;23.09;43.99;101061.72;5002310;28;20091;-73
2021/09/14 08:04:06;;;;;;;7.30;4.95;;;;;;;23.11;43.95;101059.66;5026993;28;20045;-73
2021/09/14 08:06:33;;;;;;;7.82;4.88;;;;;;;23.15;43.75;101071.22;5000022;28;20060;-73
2021/09/14 08:09:00;;;;;;;6.05;4.75;;;;;;;23.18;43.99;101070.88;5007571;28;20124;-74
2021/09/14 08:11:26;;;;;;;6.03;4.65;;;;;;;23.22;43.90;101066.72;4991073;28;20126;-73
2021/09/14 08:13:53;;;;;;;6.55;5.03;;;;;;;23.26;43.61;101067.19;5007162;28;20052;-74
2021/09/14 08:16:19;;;;;;;6.70;4.82;;;;;;;23.29;43.99;101066.84;5008184;28;20060;-74
2021/09/14 08:18:46;;;;;;;6.40;4.43;;;;;;;23.33;43.82;101065.44;5007665;28;20042;-73
2021/09/14 08:21:12;;;;;;;7.70;4.68;;;;;;;23.39;43.69;101075.81;5007897;28;20052;-74
2021/09/14 08:23:39;;;;;;;6.75;4.28;;;;;;;23.44;43.65;101073.34;4989517;28;20141;-74
2021/09/14 08:26:06;;;;;;;6.32;4.53;;;;;;;23.48;43.72;101078.38;5007891;28;20137;-74
2021/09/14 08:28:32;;;;;;;5.40;4.47;;;;;;;23.54;43.24;101073.19;4989492;28;20133;-73
2021/09/14 08:30:59;;;;;;;6.43;4.30;;;;;;;23.58;43.76;101083.69;4977219;28;20140;-73
2021/09/14 08:33:27;;;;;;;5.70;3.95;;;;;;;23.63;43.14;101072.94;4987248;28;20065;-72
2021/09/14 08:35:53;;;;;;;6.82;4.63;;;;;;;23.68;43.21;101061.31;4971065;28;20571;-74
2021/09/14 08:38:20;;;;;;;6.43;4.53;;;;;;;23.72;43.32;101063.50;4969882;28;20070;-74
2021/09/14 08:40:47;;;;;;;5.35;4.00;;;;;;;23.77;42.87;101055.53;4970982;28;20145;-73
2021/09/14 08:43:14;;;;;;;5.40;4.28;;;;;;;23.82;43.20;101061.38;4986981;28;20054;-74
2021/09/14 08:45:41;;;;;;;5.35;3.88;;;;;;;23.86;42.68;101056.34;4988089;28;20150;-72
2021/09/14 08:48:25;;;;;;;5.07;4.07;;;;;;;23.88;43.00;101052.31;4971951;28;20572;-72
2021/09/14 08:50:51;;;;;;;4.85;3.63;;;;;;;23.94;42.69;101061.81;4987955;28;20392;-73
2021/09/14 08:53:18;;;;;;;5.53;4.07;;;;;;;24.00;43.38;101061.06;4987086;28;20053;-74
2021/09/14 08:55:44;;;;;;;5.20;3.75;;;;;;;24.06;43.30;101054.78;4970695;28;20142;-73
2021/09/14 08:58:13;;;;;;;5.35;4.22;;;;;;;24.12;43.27;101054.06;4994381;28;20042;-74
2021/09/14 09:00:43;;;;;;;5.20;3.85;;;;;;;24.20;43.18;101062.34;5007007;28;20518;-73
2021/09/14 09:03:10;;;;;;;5.40;3.88;;;;;;;24.26;42.95;101060.75;5006300;28;20555;-73
2021/09/14 09:05:40;;;;;;;4.78;3.70;;;;;;;24.36;42.73;101072.44;4989336;28;20136;-73
2021/09/14 09:08:19;;;;;;;5.10;3.58;;;;;;;24.46;42.93;101061.09;5020091;28;20128;-72
2021/09/14 09:10:58;;;;;;;5.93;3.83;;;;;;;24.54;42.77;101063.78;5009357;28;20517;-73
2021/09/14 09:13:27;;;;;;;5.13;3.70;;;;;;;24.60;43.11;101060.25;5008903;28;20219;-75
2021/09/14 09:15:53;;;;;;;5.10;3.95;;;;;;;24.70;42.80;101057.22;4989692;28;20084;-74
2021/09/14 09:18:21;;;;;;;5.70;3.53;;;;;;;24.79;42.26;101056.06;5021462;28;20070;-72
2021/09/14 09:20:48;;;;;;;4.60;3.42;;;;;;;24.88;42.34;101041.00;5026738;28;20132;-74
2021/09/14 09:23:25;;;;;;;5.05;3.70;;;;;;;25.01;41.87;101047.69;5011462;28;20125;-74
2021/09/14 09:26:04;;;;;;;5.85;3.72;;;;;;;25.10;41.71;101042.88;5006531;28;20100;-73
2021/09/14 09:28:30;;;;;;;4.72;3.45;;;;;;;25.15;42.48;101040.38;5005950;28;20121;-73
2021/09/14 09:30:59;;;;;;;4.28;3.40;;;;;;;25.26;41.91;101034.34;5006739;28;20136;-74
2021/09/14 09:33:29;;;;;;;5.85;3.78;;;;;;;25.36;42.11;101043.25;5005929;28;20054;-73
2021/09/14 09:36:07;;;;;;;4.90;3.45;;;;;;;25.49;41.30;101038.91;5006452;28;20049;-73
2021/09/14 09:38:48;;;;;;;4.68;3.70;;;;;;;25.58;41.55;101038.59;5005317;28;20136;-73
2021/09/14 09:41:19;;;;;;;4.83;3.70;;;;;;;25.65;42.23;101028.44;5006880;28;20046;-74
2021/09/14 09:43:47;;;;;;;4.50;3.53;;;;;;;25.78;41.98;101024.94;5003174;28;20476;-73
2021/09/14 09:46:20;;;;;;;4.93;3.47;;;;;;;25.88;41.42;101025.47;5008367;28;20566;-75
2021/09/14 09:48:48;;;;;;;3.92;3.10;;;;;;;26.01;41.47;101033.97;4993004;28;20500;-75
2021/09/14 09:51:16;;;;;;;4.60;3.45;;;;;;;26.13;41.61;101034.28;5006260;28;20982;-75
2021/09/14 09:53:43;;;;;;;4.82;3.00;;;;;;;26.25;41.32;101035.47;5018929;28;20049;-75
2021/09/14 09:56:09;;;;;;;4.40;3.42;;;;;;;26.37;41.38;101039.47;5026084;28;20072;-74
2021/09/14 09:58:36;;;;;;;4.40;3.35;;;;;;;26.50;40.78;101042.38;5024917;28;20081;-74
2021/09/14 10:01:14;;;;;;;4.30;3.17;;;;;;;26.67;40.56;101042.94;5025742;28;20096;-74
2021/09/14 10:04:11;;;;;;;5.03;3.22;;;;;;;26.79;40.17;101040.44;5007178;28;20052;-75
2021/09/14 10:06:42;;;;;;;4.80;3.33;;;;;;;26.89;40.15;101035.34;5025649;28;20140;-74
2021/09/14 10:09:09;;;;;;;4.78;2.95;;;;;;;26.97;40.27;101038.00;5024917;28;20124;-75
2021/09/14 10:11:36;;;;;;;3.50;2.67;;;;;;;27.06;39.72;101030.34;5026378;28;20563;-75
2021/09/14 10:14:11;;;;;;;4.22;2.60;;;;;;;27.17;38.94;101027.84;5024454;28;20084;-75
2021/09/14 10:16:45;;;;;;;5.07;2.90;;;;;;;27.21;39.41;101019.91;5025883;28;20142;-74
2021/09/14 10:19:13;;;;;;;4.72;3.10;;;;;;;27.27;39.43;101007.94;5010291;28;20049;-75
2021/09/14 10:21:59;;;;;;;4.70;3.10;;;;;;;27.36;39.34;101012.25;5009841;28;20056;-74
2021/09/14 10:24:25;;;;;;;5.70;3.67;;;;;;;27.40;39.34;101012.72;5006692;28;20538;-74
2021/09/14 10:27:10;;;;;;;4.32;2.90;;;;;;;27.49;38.30;101019.84;5029904;28;20511;-75
2021/09/14 10:29:37;;;;;;;4.13;3.28;;;;;;;27.52;39.12;101020.25;5018181;28;20602;-73
2021/09/14 10:32:09;;;;;;;4.10;3.00;;;;;;;27.61;38.87;101018.16;4973545;28;20054;-75
2021/09/14 10:34:42;;;;;;;3.78;3.08;;;;;;;27.63;38.65;101010.47;5020780;28;20045;-73
2021/09/14 10:37:11;;;;;;;4.45;3.03;;;;;;;27.70;38.56;101016.91;5012034;28;20049;-74
2021/09/14 10:39:42;;;;;;;4.80;3.15;;;;;;;27.74;38.99;101020.16;5013797;28;20128;-74
2021/09/14 10:42:20;;;;;;;4.43;3.17;;;;;;;27.77;38.46;101009.41;5010162;28;20465;-72
2021/09/14 10:44:51;;;;;;;4.75;3.28;;;;;;;27.79;38.95;101012.88;5006833;28;20498;-74
2021/09/14 10:47:19;;;;;;;4.38;3.22;;;;;;;27.84;39.05;101015.00;5029984;28;20054;-73
2021/09/14 10:50:03;;;;;;;4.72;3.40;;;;;;;27.93;38.53;101009.03;5010881;28;20049;-74
2021/09/14 10:52:41;;;;;;;4.70;3.20;;;;;;;28.01;38.80;100999.59;5021042;28;20045;-74
2021/09/14 10:55:10;;;;;;;3.97;3.28;;;;;;;28.06;39.00;101005.41;5009510;28;20077;-74
2021/09/14 10:57:42;;;;;;;5.07;3.30;;;;;;;28.19;37.94;100994.25;5011517;28;20049;-72
2021/09/14 11:00:14;;;;;;;4.50;2.78;;;;;;;28.25;38.69;101004.56;4996989;28;20144;-74
2021/09/14 11:02:41;;;;;;;;;;;;;;;28.03;39.40;101003.88;5009144;28;20061;-74
2021/09/14 11:05:10;;;;;;;3.72;2.70;;;;;;;28.39;38.74;100999.88;5009573;28;19960;-73
2021/09/14 11:07:36;;;;;;;3.60;2.80;;;;;;;28.48;38.35;100987.41;5008148;28;20056;-73
2021/09/14 11:10:11;;;;;;;3.70;2.88;;;;;;;28.59;38.17;100989.50;5005886;28;20164;-74
2021/09/14 11:12:44;;;;;;;4.47;2.95;;;;;;;28.68;37.63;100982.63;5027502;28;20107;-74
2021/09/14 11:15:11;;;;;;;4.82;3.30;;;;;;;28.71;37.71;100982.19;5028712;28;20045;-73
2021/09/14 11:17:37;;;;;;;4.43;3.17;;;;;;;28.77;37.78;100983.28;5027873;28;21162;-73
2021/09/14 11:20:13;;;;;;;4.28;3.10;;;;;;;28.86;37.23;100986.72;5029045;28;20367;-73
2021/09/14 11:22:42;;;;;;;4.20;3.00;;;;;;;28.92;37.40;100992.28;5027662;28;20069;-74
2021/09/14 11:25:14;;;;;;;5.00;3.20;;;;;;;28.98;37.11;100977.44;5028851;28;20457;-74
2021/09/14 11:28:02;;;;;;;4.38;3.28;;;;;;;29.00;37.22;100969.66;5027275;28;20076;-74
2021/09/14 11:30:31;;;;;;;6.35;3.20;;;;;;;29.06;37.46;100977.19;4999429;28;20424;-73
2021/09/14 11:32:59;;;;;;;4.10;3.00;;;;;;;29.11;37.24;100971.78;5009905;28;20141;-74
2021/09/14 11:35:30;;;;;;;5.25;3.22;;;;;;;29.19;36.39;100975.41;5028802;28;20128;-74
2021/09/14 11:37:59;;;;;;;4.00;2.88;;;;;;;29.19;37.23;100967.03;5009977;28;20363;-73
2021/09/14 11:40:27;;;;;;;4.60;3.17;;;;;;;29.24;37.13;100967.22;5010986;28;20832;-74
2021/09/14 11:42:55;;;;;;;3.92;3.10;;;;;;;29.30;37.08;100967.19;5027053;28;20073;-74
2021/09/14 11:45:24;;;;;;;4.13;3.03;;;;;;;29.35;36.88;100966.50;5010797;28;20045;-74
2021/09/14 11:47:55;;;;;;;3.60;2.72;;;;;;;29.42;36.35;100967.38;5027004;28;20076;-73
2021/09/14 11:50:36;;;;;;;4.70;3.30;;;;;;;29.43;36.90;100957.91;5014844;28;20134;-74
2021/09/14 11:53:13;;;;;;;4.10;2.90;;;;;;;29.55;36.30;100961.72;4990023;28;20472;-74
2021/09/14 11:55:47;;;;;;;3.88;2.90;;;;;;;29.61;36.15;100952.41;5008429;28;20049;-74
2021/09/14 11:58:27;;;;;;;3.75;2.92;;;;;;;29.65;36.65;100958.44;4989960;28;20055;-73
2021/09/14 12:00:55;;;;;;;5.35;3.20;;;;;;;29.73;36.56;100953.41;4992332;28;20603;-74
2021/09/14 12:03:36;;;;;;;4.00;3.10;;;;;;;29.83;36.36;100953.75;4990054;28;20069;-73
2021/09/14 12:06:03;;;;;;;4.38;3.28;;;;;;;29.87;36.00;100951.38;5022842;28;20045;-73
2021/09/14 12:08:37;;;;;;;4.00;2.95;;;;;;;29.95;35.67;100947.47;5026829;28;20107;-73
2021/09/14 12:11:04;;;;;;;4.25;3.03;;;;;;;29.98;35.51;100945.06;5013411;28;20084;-72
2021/09/14 12:13:38;;;;;;;3.85;2.80;;;;;;;30.08;35.04;100944.56;5006910;28;20052;-74
2021/09/14 12:16:12;;;;;;;4.00;3.10;;;;;;;30.12;35.21;100946.69;5007527;28;20535;-74
2021/09/14 12:18:44;;;;;;;3.90;2.83;;;;;;;30.16;34.89;100939.53;4990312;28;20440;-72
2021/09/14 12:21:11;;;;;;;4.05;3.00;;;;;;;30.20;35.07;100939.94;5021709;28;20132;-73